Time;durP1;ratioP1;P1;durP2;ratioP2;P2;SDS_P1;SDS_P2;PMS_P1;PMS_P2;Temp;Humidity;BMP_temperature;BMP_pressure;BME280_temperature;BME280_humidity;BME280_pressure;Samples;Min_cycle;Max_cycle;Signal;HPM_P1;HPM_P2
2022/06/28 00:00:37;;;;;;;7.13;4.07;;;15.40;99.90;;;;;;5057436;28;20547;-72
2022/06/28 00:03:04;;;;;;;4.10;3.70;;;15.40;99.90;;;;;;5048221;28;20459;-72
2022/06/28 00:05:32;;;;;;;5.73;4.50;;;15.30;99.90;;;;;;5055974;28;20459;-71
2022/06/28 00:07:59;;;;;;;7.93;4.70;;;15.20;99.90;;;;;;5054890;28;20634;-72
2022/06/28 00:10:27;;;;;;;7.33;3.93;;;15.20;99.90;;;;;;5053056;28;21054;-71
2022/06/28 00:12:54;;;;;;;6.10;3.00;;;15.20;99.90;;;;;;5060041;28;20462;-71
2022/06/28 00:18:05;;;;;;;4.73;4.23;;;15.20;99.90;;;;;;5056175;28;20990;-71
2022/06/28 00:20:34;;;;;;;5.50;3.43;;;15.20;99.90;;;;;;5056695;28;20594;-71
2022/06/28 00:23:00;;;;;;;3.97;3.40;;;15.10;99.90;;;;;;5053017;28;20458;-71
2022/06/28 00:25:27;;;;;;;4.23;3.50;;;14.90;99.90;;;;;;5056956;28;20451;-71
2022/06/28 00:27:54;;;;;;;3.27;2.97;;;14.90;99.90;;;;;;5049138;28;21293;-71
2022/06/28 00:30:21;;;;;;;5.07;4.57;;;14.90;99.90;;;;;;5048451;28;20483;-72
2022/06/28 00:32:48;;;;;;;12.43;5.37;;;14.80;99.90;;;;;;5048261;28;20571;-70
2022/06/28 00:35:15;;;;;;;3.93;3.50;;;14.80;99.90;;;;;;5048125;28;21015;-72
2022/06/28 00:37:44;;;;;;;5.47;3.97;;;14.80;99.90;;;;;;5051413;28;20513;-72
2022/06/28 00:40:12;;;;;;;4.77;3.43;;;14.80;99.90;;;;;;5051341;28;21034;-71
2022/06/28 00:42:39;;;;;;;5.23;4.50;;;14.80;99.90;;;;;;5052275;28;20547;-71
2022/06/28 00:45:08;;;;;;;5.70;4.10;;;14.80;99.90;;;;;;5038068;28;20479;-71
2022/06/28 00:47:35;;;;;;;3.90;3.60;;;14.70;99.90;;;;;;5052549;28;22803;-71
2022/06/28 00:50:03;;;;;;;4.20;3.80;;;14.70;99.90;;;;;;5050716;28;20468;-70
2022/06/28 00:52:30;;;;;;;4.30;3.60;;;14.70;99.90;;;;;;5044284;28;20830;-71
2022/06/28 00:54:58;;;;;;;6.10;4.23;;;14.70;99.90;;;;;;5049577;28;20447;-71
2022/06/28 00:57:25;;;;;;;9.80;3.47;;;14.60;99.90;;;;;;5048616;28;20446;-72
2022/06/28 00:59:52;;;;;;;6.60;4.33;;;14.50;99.90;;;;;;5045104;28;20515;-71
2022/06/28 01:02:20;;;;;;;5.67;3.37;;;14.40;99.90;;;;;;5048388;28;20807;-71
2022/06/28 01:04:46;;;;;;;4.83;3.67;;;14.40;99.90;;;;;;5048603;28;20954;-71
2022/06/28 01:07:13;;;;;;;4.53;3.73;;;14.30;99.90;;;;;;5051408;28;20463;-70
2022/06/28 01:09:40;;;;;;;6.13;4.33;;;14.40;99.90;;;;;;5050208;28;20580;-70
2022/06/28 01:12:09;;;;;;;5.13;3.40;;;14.40;99.90;;;;;;5047601;28;21964;-70
2022/06/28 01:14:36;;;;;;;4.60;3.80;;;14.40;99.90;;;;;;5053972;28;20454;-70
2022/06/28 01:17:03;;;;;;;5.40;4.33;;;14.40;99.90;;;;;;5058932;28;20589;-70
2022/06/28 01:19:30;;;;;;;4.90;3.47;;;14.50;99.90;;;;;;5052977;28;20499;-70
2022/06/28 01:21:57;;;;;;;5.47;4.93;;;14.50;99.90;;;;;;5058811;28;20556;-71
2022/06/28 01:24:26;;;;;;;6.37;3.47;;;14.40;99.90;;;;;;5058569;28;20546;-70
2022/06/28 01:26:53;;;;;;;6.37;4.00;;;14.30;99.90;;;;;;5053805;28;20470;-72
2022/06/28 01:29:20;;;;;;;5.67;4.10;;;14.30;99.90;;;;;;5048525;28;20558;-71
2022/06/28 01:31:47;;;;;;;5.83;5.33;;;14.30;99.90;;;;;;5055832;28;20499;-70
2022/06/28 01:34:16;;;;;;;4.17;3.13;;;14.20;99.90;;;;;;5056707;28;20458;-71
2022/06/28 01:36:43;;;;;;;7.33;4.80;;;14.20;99.90;;;;;;5051788;28;20949;-72
2022/06/28 01:39:10;;;;;;;7.40;3.90;;;14.30;99.90;;;;;;5057907;28;20490;-71
2022/06/28 01:41:38;;;;;;;4.77;3.70;;;14.30;99.90;;;;;;5058408;28;20830;-70
2022/06/28 01:44:08;;;;;;;5.77;4.10;;;14.20;99.90;;;;;;5057312;28;20459;-71
2022/06/28 01:46:38;;;;;;;4.07;3.67;;;14.20;99.90;;;;;;5053856;28;20464;-70
2022/06/28 01:49:06;;;;;;;6.63;5.83;;;14.20;99.90;;;;;;5051194;28;20509;-70
2022/06/28 01:51:33;;;;;;;13.80;3.60;;;14.20;99.90;;;;;;5047690;28;20438;-71
2022/06/28 01:54:00;;;;;;;3.17;2.60;;;14.20;99.90;;;;;;5057254;28;20990;-71
2022/06/28 01:56:27;;;;;;;4.10;3.17;;;14.20;99.90;;;;;;5055784;28;20469;-70
2022/06/28 01:58:56;;;;;;;5.30;3.63;;;14.20;99.90;;;;;;5054062;28;20559;-70
2022/06/28 02:01:23;;;;;;;4.93;3.40;;;14.00;99.90;;;;;;5049682;28;20433;-71
2022/06/28 02:03:51;;;;;;;5.53;3.63;;;13.90;99.90;;;;;;5053261;28;20455;-69
2022/06/28 02:06:18;;;;;;;7.40;3.97;;;14.00;99.90;;;;;;5051126;28;20486;-70
2022/06/28 02:08:46;;;;;;;5.60;4.80;;;14.00;99.90;;;;;;5054423;28;20480;-69
2022/06/28 02:11:12;;;;;;;5.80;3.40;;;14.00;99.90;;;;;;5054031;28;20879;-70
2022/06/28 02:13:39;;;;;;;5.03;3.30;;;14.00;99.90;;;;;;5053056;28;20483;-70
2022/06/28 02:16:08;;;;;;;3.50;3.10;;;14.00;99.90;;;;;;5058315;28;20459;-70
2022/06/28 02:18:35;;;;;;;4.87;3.33;;;14.00;99.90;;;;;;5059350;28;20573;-70
2022/06/28 02:21:01;;;;;;;3.50;2.90;;;13.90;99.90;;;;;;5059357;28;20457;-70
2022/06/28 02:23:28;;;;;;;6.17;3.30;;;13.90;99.90;;;;;;5058788;28;20478;-70
2022/06/28 02:25:56;;;;;;;4.50;3.60;;;13.80;99.90;;;;;;5054048;28;20463;-71
2022/06/28 02:28:23;;;;;;;6.83;3.67;;;13.80;99.90;;;;;;5054460;28;20490;-71
2022/06/28 02:30:50;;;;;;;10.40;4.43;;;13.70;99.90;;;;;;5050237;28;20922;-69
2022/06/28 02:33:18;;;;;;;4.57;2.87;;;13.70;99.90;;;;;;5056407;28;20547;-70
2022/06/28 02:41:14;;;;;;;2.83;2.50;;;13.80;99.90;;;;;;5054159;28;20446;-70
2022/06/28 02:43:40;;;;;;;4.27;3.70;;;13.70;99.90;;;;;;5058371;28;20459;-70
2022/06/28 02:46:07;;;;;;;6.27;4.37;;;13.80;99.90;;;;;;5055727;28;20464;-70
2022/06/28 02:48:36;;;;;;;5.37;3.70;;;13.80;99.90;;;;;;5054592;28;20559;-71
2022/06/28 02:51:03;;;;;;;3.00;2.27;;;13.80;99.90;;;;;;5051479;28;20931;-70
2022/06/28 02:53:30;;;;;;;4.00;3.13;;;13.80;99.90;;;;;;5056839;28;20518;-70
2022/06/28 02:55:57;;;;;;;4.80;3.87;;;13.70;99.90;;;;;;5052130;28;20627;-70
2022/06/28 02:58:23;;;;;;;6.27;4.30;;;13.70;99.90;;;;;;5049365;28;20540;-71
2022/06/28 03:00:50;;;;;;;5.40;3.60;;;13.70;99.90;;;;;;5052886;28;20434;-70
2022/06/28 03:03:17;;;;;;;5.47;3.60;;;13.60;99.90;;;;;;5060057;28;20466;-70
2022/06/28 03:05:45;;;;;;;3.90;3.37;;;13.60;99.90;;;;;;5052655;28;20458;-70
2022/06/28 03:08:12;;;;;;;4.20;2.83;;;13.70;99.90;;;;;;5037629;28;20836;-71
2022/06/28 03:10:39;;;;;;;8.10;3.87;;;13.70;99.90;;;;;;5060411;28;20566;-70
2022/06/28 03:13:06;;;;;;;18.53;4.20;;;13.70;99.90;;;;;;5060429;28;20446;-69
2022/06/28 03:15:33;;;;;;;7.13;3.93;;;13.60;99.90;;;;;;5058288;28;20486;-70
2022/06/28 03:18:00;;;;;;;10.60;4.30;;;13.60;99.90;;;;;;5063293;28;20475;-69
2022/06/28 03:20:28;;;;;;;5.10;3.20;;;13.60;99.90;;;;;;5070680;28;20496;-71
2022/06/28 03:22:57;;;;;;;3.60;3.17;;;13.70;99.90;;;;;;5072947;28;20468;-69
2022/06/28 03:25:24;;;;;;;5.10;3.50;;;13.80;99.90;;;;;;5072528;28;20467;-71
2022/06/28 03:27:51;;;;;;;4.60;3.67;;;13.80;99.90;;;;;;5073260;28;20562;-70
2022/06/28 03:30:18;;;;;;;7.00;4.00;;;13.70;99.90;;;;;;5051488;28;20467;-71
2022/06/28 03:32:44;;;;;;;4.47;3.50;;;13.70;99.90;;;;;;5058286;28;20433;-73
2022/06/28 03:35:11;;;;;;;4.27;3.00;;;13.70;99.90;;;;;;5047994;28;20463;-71
2022/06/28 03:37:39;;;;;;;3.47;2.57;;;13.80;99.90;;;;;;5050137;28;21336;-71
2022/06/28 03:40:08;;;;;;;6.40;3.57;;;13.80;99.90;;;;;;5048138;28;20466;-71
2022/06/28 03:42:36;;;;;;;8.20;3.80;;;13.70;99.90;;;;;;5052365;28;21337;-73
2022/06/28 03:45:03;;;;;;;4.10;3.67;;;13.70;99.90;;;;;;5048598;28;20452;-73
2022/06/28 03:47:31;;;;;;;5.77;4.00;;;13.70;99.90;;;;;;5049126;28;20774;-71
2022/06/28 03:49:57;;;;;;;4.27;2.97;;;13.70;99.90;;;;;;5057352;28;20475;-72
2022/06/28 03:52:28;;;;;;;6.57;2.70;;;13.70;99.90;;;;;;5055141;28;20422;-72
2022/06/28 03:54:55;;;;;;;16.73;4.03;;;13.70;99.90;;;;;;5055152;28;20889;-71
2022/06/28 03:57:24;;;;;;;4.83;3.40;;;13.60;99.90;;;;;;5043981;28;20470;-71
2022/06/28 03:59:51;;;;;;;5.67;4.50;;;13.60;99.90;;;;;;5055374;28;20834;-72
2022/06/28 04:02:18;;;;;;;4.00;3.47;;;13.70;99.90;;;;;;5052438;28;20467;-73
2022/06/28 04:04:45;;;;;;;4.80;3.80;;;13.60;99.90;;;;;;5037113;28;20470;-72
2022/06/28 04:07:12;;;;;;;7.57;3.93;;;13.70;99.90;;;;;;5047705;28;20593;-72
2022/06/28 04:09:39;;;;;;;4.63;3.67;;;13.60;99.90;;;;;;5059580;28;20503;-72
2022/06/28 04:12:07;;;;;;;4.93;4.20;;;13.70;99.90;;;;;;5057525;28;20550;-71
2022/06/28 04:14:35;;;;;;;9.10;4.37;;;13.80;99.90;;;;;;5060130;28;20454;-71
2022/06/28 04:17:02;;;;;;;7.90;4.70;;;13.80;99.90;;;;;;5060388;28;20462;-71
2022/06/28 04:19:29;;;;;;;7.30;3.47;;;13.70;99.90;;;;;;5057255;28;20490;-71
2022/06/28 04:21:57;;;;;;;10.83;4.60;;;13.80;99.90;;;;;;5048842;28;20545;-73
2022/06/28 04:24:24;;;;;;;9.00;4.80;;;13.90;99.90;;;;;;5050862;28;20466;-72
2022/06/28 04:26:51;;;;;;;4.80;3.50;;;14.00;99.90;;;;;;5056701;28;20537;-71
2022/06/28 04:29:17;;;;;;;6.80;5.23;;;14.00;99.90;;;;;;5056827;28;20876;-71
2022/06/28 04:31:46;;;;;;;5.03;3.50;;;14.10;99.90;;;;;;5060033;28;20479;-71
2022/06/28 04:34:13;;;;;;;7.33;4.00;;;14.20;99.90;;;;;;5049805;28;20465;-69
2022/06/28 04:36:40;;;;;;;13.60;3.47;;;14.10;99.90;;;;;;5048431;28;20932;-71
2022/06/28 04:39:07;;;;;;;10.00;4.80;;;14.30;99.90;;;;;;5048461;28;20475;-70
2022/06/28 04:41:33;;;;;;;9.10;5.57;;;14.30;99.90;;;;;;5051753;28;20528;-70
2022/06/28 04:44:01;;;;;;;5.07;4.00;;;14.40;99.90;;;;;;5044974;28;20927;-70
2022/06/28 04:46:28;;;;;;;9.63;5.27;;;14.50;99.90;;;;;;5051435;28;20454;-71
2022/06/28 04:48:56;;;;;;;7.67;4.03;;;14.60;99.90;;;;;;5054129;28;20468;-71
2022/06/28 04:51:23;;;;;;;6.97;4.47;;;14.70;99.90;;;;;;5058029;28;20934;-71
2022/06/28 04:53:50;;;;;;;9.60;5.73;;;14.90;99.90;;;;;;5061359;28;20754;-71
2022/06/28 04:56:17;;;;;;;12.43;5.10;;;15.10;99.90;;;;;;5049968;28;20452;-70
2022/06/28 04:58:44;;;;;;;9.93;6.30;;;15.40;99.90;;;;;;5059984;28;20678;-70
2022/06/28 05:01:11;;;;;;;7.23;4.90;;;15.50;99.90;;;;;;5056536;28;20423;-70
2022/06/28 05:03:38;;;;;;;5.47;4.70;;;15.60;99.90;;;;;;5058063;28;20953;-71
2022/06/28 05:06:07;;;;;;;6.50;5.50;;;15.80;99.90;;;;;;5059057;28;20433;-71
2022/06/28 05:08:33;;;;;;;5.97;4.00;;;15.90;99.90;;;;;;5062993;28;20885;-71
2022/06/28 05:11:01;;;;;;;7.07;4.80;;;15.90;99.90;;;;;;5058510;28;20562;-71
2022/06/28 05:13:29;;;;;;;5.97;4.10;;;16.00;99.90;;;;;;5055456;28;20921;-71
2022/06/28 05:15:55;;;;;;;5.57;4.10;;;16.20;99.90;;;;;;5051335;28;21442;-71
2022/06/28 05:18:22;;;;;;;6.70;4.77;;;16.30;99.90;;;;;;5050104;28;20478;-71
2022/06/28 05:20:49;;;;;;;4.80;3.70;;;16.40;99.90;;;;;;5058250;28;20543;-71
2022/06/28 05:23:17;;;;;;;8.50;4.73;;;16.60;99.90;;;;;;5055864;28;20477;-69
2022/06/28 05:25:44;;;;;;;4.83;3.10;;;16.80;99.90;;;;;;5054347;28;20467;-70
2022/06/28 05:38:19;;;;;;;6.83;3.77;;;19.30;99.90;;;;;;5055761;28;20480;-70
2022/06/28 05:40:46;;;;;;;3.67;3.27;;;19.40;99.90;;;;;;5054853;28;20467;-70
2022/06/28 05:43:13;;;;;;;3.87;2.83;;;19.50;99.90;;;;;;5056858;28;20519;-69
2022/06/28 05:45:48;;;;;;;10.20;3.53;;;19.90;99.90;;;;;;5059642;28;23510;-70
2022/06/28 05:48:15;;;;;;;5.17;3.37;;;20.20;99.90;;;;;;5059179;28;20856;-70
2022/06/28 05:50:42;;;;;;;3.87;2.90;;;20.50;99.90;;;;;;5058848;28;20479;-70
2022/06/28 05:53:09;;;;;;;6.80;3.70;;;20.50;99.90;;;;;;5059553;28;20952;-70
2022/06/28 05:55:37;;;;;;;6.43;2.77;;;20.70;99.90;;;;;;5053952;28;21269;-70
2022/06/28 05:58:04;;;;;;;4.07;3.13;;;20.30;99.90;;;;;;5063292;28;20505;-71
2022/06/28 06:00:33;;;;;;;4.00;3.43;;;20.50;99.90;;;;;;5061603;28;20540;-71
2022/06/28 06:03:00;;;;;;;3.70;2.70;;;20.70;99.90;;;;;;5064025;28;20451;-71
2022/06/28 06:05:27;;;;;;;6.90;2.87;;;21.00;99.90;;;;;;5056590;28;20967;-70
2022/06/28 06:07:54;;;;;;;5.50;2.23;;;21.20;99.90;;;;;;5060564;28;20557;-70
2022/06/28 06:10:21;;;;;;;3.87;2.40;;;21.20;99.90;;;;;;5062876;28;20869;-70
2022/06/28 06:12:50;;;;;;;3.20;2.30;;;21.70;99.90;;;;;;5061109;28;20466;-71
2022/06/28 06:15:16;;;;;;;4.47;2.50;;;21.80;99.90;;;;;;5057359;28;20960;-71
2022/06/28 06:17:43;;;;;;;2.70;1.90;;;21.90;99.90;;;;;;5057341;28;20470;-71
2022/06/28 06:20:10;;;;;;;2.90;1.67;;;22.10;99.90;;;;;;5063877;28;20479;-70
2022/06/28 06:22:37;;;;;;;2.30;1.93;;;22.70;99.90;;;;;;5063901;28;20487;-71
2022/06/28 06:25:05;;;;;;;2.20;1.77;;;23.40;99.90;;;;;;5059364;28;20479;-70
2022/06/28 06:27:32;;;;;;;3.27;2.00;;;23.40;99.90;;;;;;5061026;28;20445;-71
2022/06/28 06:30:00;;;;;;;4.23;2.13;;;23.40;99.90;;;;;;5061867;28;20512;-71
2022/06/28 06:32:27;;;;;;;2.57;2.30;;;23.40;99.90;;;;;;5062637;28;20500;-70
2022/06/28 06:34:54;;;;;;;2.73;2.20;;;23.40;99.90;;;;;;5063144;28;20957;-70
2022/06/28 06:37:21;;;;;;;3.83;2.13;;;23.40;99.90;;;;;;5064118;28;20455;-71
2022/06/28 06:39:48;;;;;;;9.13;3.13;;;23.40;99.90;;;;;;5060405;28;20471;-70
2022/06/28 06:42:15;;;;;;;3.23;2.17;;;23.80;99.90;;;;;;5060149;28;20479;-71
2022/06/28 06:44:41;;;;;;;3.23;2.13;;;24.00;99.90;;;;;;5057031;28;20547;-70
2022/06/28 06:47:10;;;;;;;5.83;1.70;;;24.10;99.90;;;;;;5061884;28;20465;-70
2022/06/28 06:49:36;;;;;;;2.33;1.83;;;23.80;99.90;;;;;;5058964;28;20471;-70
2022/06/28 06:52:04;;;;;;;3.37;2.30;;;23.70;99.90;;;;;;5060095;28;20487;-70
2022/06/28 06:54:31;;;;;;;2.60;2.13;;;24.00;99.90;;;;;;5062784;28;20530;-70
2022/06/28 06:56:58;;;;;;;4.90;2.03;;;24.20;99.90;;;;;;5058746;28;20530;-69
2022/06/28 06:59:25;;;;;;;6.53;2.67;;;24.10;99.90;;;;;;5061348;28;20979;-70
2022/06/28 07:01:52;;;;;;;2.83;2.27;;;24.40;99.90;;;;;;5060599;28;20450;-70
2022/06/28 07:04:21;;;;;;;4.00;1.70;;;24.30;99.90;;;;;;5063194;28;21703;-69
2022/06/28 07:06:48;;;;;;;6.03;2.93;;;23.30;99.90;;;;;;5060557;28;20467;-71
2022/06/28 07:09:14;;;;;;;2.30;2.10;;;23.70;99.90;;;;;;5060466;28;20454;-70
2022/06/28 07:11:42;;;;;;;2.67;1.97;;;24.30;99.90;;;;;;5059542;28;20475;-71
2022/06/28 07:14:08;;;;;;;2.20;1.90;;;24.70;99.90;;;;;;5062815;28;20595;-70
2022/06/28 07:16:35;;;;;;;5.50;2.30;;;25.10;99.90;;;;;;5056660;28;20490;-70
2022/06/28 07:19:03;;;;;;;3.50;2.10;;;25.60;99.90;;;;;;5057803;28;21057;-69
2022/06/28 07:21:31;;;;;;;4.30;2.20;;;26.10;99.90;;;;;;5061079;28;20486;-70
2022/06/28 07:23:58;;;;;;;3.33;2.70;;;26.20;99.90;;;;;;5062097;28;20459;-70
2022/06/28 07:26:25;;;;;;;2.57;2.37;;;26.10;99.90;;;;;;5058914;28;20534;-70
2022/06/28 07:28:51;;;;;;;9.77;2.13;;;25.90;99.90;;;;;;5064125;28;20553;-70
2022/06/28 07:31:18;;;;;;;2.90;2.10;;;26.00;99.90;;;;;;5056387;28;20493;-70
2022/06/28 07:33:45;;;;;;;1.70;1.60;;;26.00;99.90;;;;;;5063607;28;20450;-70
2022/06/28 07:36:13;;;;;;;5.73;2.03;;;26.10;99.90;;;;;;5060099;28;20584;-71
2022/06/28 07:38:41;;;;;;;3.50;1.97;;;25.40;99.90;;;;;;5060768;28;20501;-70
2022/06/28 07:41:08;;;;;;;2.77;1.90;;;25.70;99.90;;;;;;5061994;28;21117;-70
2022/06/28 07:43:35;;;;;;;5.00;2.33;;;26.30;99.90;;;;;;5060332;28;20462;-70
2022/06/28 07:46:02;;;;;;;3.37;2.37;;;26.30;99.90;;;;;;5061758;28;20971;-71
2022/06/28 07:48:28;;;;;;;1.90;1.53;;;26.00;99.90;;;;;;5054979;28;20481;-70
2022/06/28 07:53:41;;;;;;;3.33;1.80;;;26.40;99.90;;;;;;5058753;28;20434;-69
2022/06/28 07:56:08;;;;;;;7.10;2.60;;;26.80;99.90;;;;;;5062136;28;20453;-69
2022/06/28 07:58:36;;;;;;;3.73;2.00;;;27.20;99.90;;;;;;5055948;28;20478;-71
2022/06/28 08:01:03;;;;;;;5.03;1.57;;;27.60;99.90;;;;;;5060432;28;21195;-70
2022/06/28 08:03:30;;;;;;;3.23;2.00;;;27.60;99.90;;;;;;5062986;28;20459;-69
2022/06/28 08:05:56;;;;;;;4.23;2.50;;;27.70;99.90;;;;;;5059414;28;20452;-70
2022/06/28 08:08:23;;;;;;;2.50;2.30;;;27.80;99.50;;;;;;5059337;28;20490;-71
2022/06/28 08:10:51;;;;;;;5.03;2.00;;;27.50;98.50;;;;;;5060463;28;20503;-70
2022/06/28 08:13:19;;;;;;;2.50;2.00;;;27.50;99.10;;;;;;5060976;28;21437;-70
2022/06/28 08:15:46;;;;;;;2.50;1.67;;;27.60;98.60;;;;;;5056862;28;20454;-72
2022/06/28 08:18:14;;;;;;;6.60;2.07;;;28.00;97.80;;;;;;5057955;28;20999;-70
2022/06/28 08:20:40;;;;;;;2.60;1.77;;;27.70;99.00;;;;;;5061036;28;20571;-69
2022/06/28 08:23:07;;;;;;;2.57;1.73;;;28.20;98.20;;;;;;5057390;28;20459;-70
2022/06/28 08:25:34;;;;;;;2.63;1.63;;;28.40;96.90;;;;;;5058945;28;20474;-70
2022/06/28 08:28:03;;;;;;;6.63;1.97;;;28.10;95.10;;;;;;5061418;28;20558;-70
2022/06/28 08:30:29;;;;;;;2.97;1.80;;;27.70;95.90;;;;;;5059439;28;20465;-71
2022/06/28 08:32:57;;;;;;;2.40;1.40;;;28.00;96.20;;;;;;5057484;28;20479;-70
2022/06/28 08:35:24;;;;;;;4.73;2.07;;;28.70;94.60;;;;;;5059132;28;20464;-71
2022/06/28 08:37:51;;;;;;;4.10;3.80;;;28.00;95.00;;;;;;5057385;28;20801;-71
2022/06/28 08:40:18;;;;;;;2.87;1.60;;;28.40;92.90;;;;;;5059356;28;20567;-71
2022/06/28 08:42:48;;;;;;;2.50;1.30;;;28.60;91.40;;;;;;5058480;28;20447;-70
2022/06/28 08:45:17;;;;;;;3.27;1.87;;;28.60;92.60;;;;;;5060835;28;20428;-70
2022/06/28 08:47:47;;;;;;;2.00;1.40;;;28.60;91.70;;;;;;5058757;28;20821;-70
2022/06/28 08:50:18;;;;;;;6.03;1.33;;;29.50;91.60;;;;;;5060129;28;20814;-70
2022/06/28 08:52:46;;;;;;;3.10;1.60;;;29.60;90.40;;;;;;5058133;28;21196;-70
2022/06/28 08:55:13;;;;;;;2.70;1.60;;;28.90;88.60;;;;;;5059385;28;20470;-69
2022/06/28 08:57:41;;;;;;;5.63;1.50;;;29.40;89.40;;;;;;5049581;28;20487;-70
2022/06/28 09:00:11;;;;;;;4.70;1.50;;;29.60;90.20;;;;;;5056582;28;20496;-70
2022/06/28 09:02:40;;;;;;;2.57;1.73;;;29.60;90.00;;;;;;5056901;28;20523;-69
2022/06/28 09:05:07;;;;;;;4.13;1.97;;;29.50;90.00;;;;;;5060815;28;20471;-71
2022/06/28 09:07:34;;;;;;;2.27;1.50;;;30.10;88.00;;;;;;5058962;28;20814;-70
2022/06/28 09:10:01;;;;;;;12.17;1.50;;;29.80;89.50;;;;;;5056263;28;20500;-69
2022/06/28 09:12:28;;;;;;;5.37;2.00;;;30.50;87.90;;;;;;5057002;28;20467;-69
2022/06/28 09:14:57;;;;;;;3.13;1.37;;;30.50;86.90;;;;;;5057397;28;20443;-70
2022/06/28 09:17:25;;;;;;;1.67;1.30;;;30.70;81.30;;;;;;5060817;28;20482;-70
2022/06/28 09:19:56;;;;;;;2.03;1.20;;;30.60;80.40;;;;;;5061807;28;20536;-70
2022/06/28 09:22:32;;;;;;;3.17;2.13;;;31.30;81.80;;;;;;5062097;28;20453;-71
2022/06/28 09:24:59;;;;;;;1.67;1.53;;;31.80;77.20;;;;;;5053651;28;20463;-70
2022/06/28 09:27:31;;;;;;;4.10;1.33;;;32.10;72.50;;;;;;5054794;28;20561;-70
2022/06/28 09:29:58;;;;;;;2.83;1.40;;;31.10;74.80;;;;;;5061116;28;20948;-70
2022/06/28 09:32:30;;;;;;;1.60;1.40;;;30.50;75.70;;;;;;5059766;28;20479;-70
2022/06/28 09:34:59;;;;;;;1.60;1.40;;;29.70;76.60;;;;;;5063739;28;20978;-69
2022/06/28 09:37:40;;;;;;;7.20;1.73;;;29.20;78.30;;;;;;5062507;28;20537;-70
2022/06/28 09:40:16;;;;;;;2.57;1.60;;;29.60;80.80;;;;;;5057984;28;20470;-70
2022/06/28 09:42:44;;;;;;;2.27;1.30;;;29.40;76.80;;;;;;5062159;28;20445;-70
2022/06/28 09:45:12;;;;;;;6.53;1.40;;;29.90;80.40;;;;;;5062718;28;20455;-70
2022/06/28 09:47:42;;;;;;;4.37;1.40;;;29.60;79.40;;;;;;5063908;28;20471;-70
2022/06/28 09:50:13;;;;;;;2.43;1.50;;;29.00;79.10;;;;;;5059773;28;20467;-70
2022/06/28 09:52:43;;;;;;;1.47;1.30;;;28.10;78.00;;;;;;5060304;28;20922;-69
2022/06/28 09:55:11;;;;;;;1.93;1.47;;;27.40;82.40;;;;;;5059979;28;20778;-70
2022/06/28 09:57:39;;;;;;;5.30;1.80;;;28.40;82.70;;;;;;5069415;28;20479;-71
2022/06/28 10:00:07;;;;;;;3.37;1.63;;;27.70;81.00;;;;;;5062610;28;20812;-70
2022/06/28 10:02:35;;;;;;;4.73;1.70;;;28.20;82.00;;;;;;5064935;28;20443;-70
2022/06/28 10:05:02;;;;;;;1.60;1.10;;;27.30;84.50;;;;;;5064398;28;20451;-70
2022/06/28 10:07:34;;;;;;;2.57;1.30;;;27.40;85.20;;;;;;5061495;28;20467;-70
2022/06/28 10:10:01;;;;;;;1.97;1.50;;;27.60;82.50;;;;;;5063961;28;20443;-70
2022/06/28 10:15:18;;;;;;;3.00;1.53;;;28.70;80.00;;;;;;5062768;28;20467;-70
2022/06/28 10:17:50;;;;;;;5.03;1.73;;;28.10;80.10;;;;;;5056831;28;20536;-70
2022/06/28 10:20:20;;;;;;;25.40;17.17;;;27.90;78.60;;;;;;5059724;28;20538;-70
2022/06/28 10:22:48;;;;;;;2.77;1.87;;;28.60;79.00;;;;;;5061597;28;20949;-70
2022/06/28 10:25:17;;;;;;;3.70;1.40;;;30.20;76.90;;;;;;5061687;28;20889;-70
2022/06/28 10:27:46;;;;;;;3.37;1.60;;;31.60;75.20;;;;;;5060632;28;20457;-70
2022/06/28 10:30:28;;;;;;;2.80;1.30;;;30.80;73.00;;;;;;5059146;28;20562;-70
2022/06/28 10:32:56;;;;;;;2.90;1.30;;;31.60;72.50;;;;;;5061131;28;20651;-70
2022/06/28 10:35:56;;;;;;;2.77;1.23;;;31.60;70.40;;;;;;5054847;28;20508;-70
2022/06/28 10:38:24;;;;;;;3.80;1.67;;;31.10;68.50;;;;;;5058167;28;20474;-70
2022/06/28 10:40:51;;;;;;;2.50;1.43;;;30.00;70.00;;;;;;5058416;28;20460;-69
2022/06/28 10:43:46;;;;;;;3.33;1.50;;;29.50;72.40;;;;;;5062956;28;20447;-69
2022/06/28 10:46:14;;;;;;;2.00;1.50;;;28.50;72.20;;;;;;5060726;28;20902;-70
2022/06/28 10:49:11;;;;;;;3.50;1.30;;;28.70;74.40;;;;;;5056946;28;20491;-70
2022/06/28 10:52:10;;;;;;;1.90;1.03;;;30.70;70.80;;;;;;5061653;28;20451;-69
2022/06/28 10:54:40;;;;;;;2.07;1.47;;;31.70;64.20;;;;;;5062202;28;20829;-70
2022/06/28 10:57:24;;;;;;;2.90;1.30;;;30.90;64.80;;;;;;5062162;28;20531;-72
2022/06/28 10:59:53;;;;;;;2.33;1.30;;;29.80;68.50;;;;;;5057176;28;20479;-70
2022/06/28 11:02:20;;;;;;;1.80;1.10;;;31.30;64.70;;;;;;5060979;28;20546;-70
2022/06/28 11:04:48;;;;;;;2.17;1.20;;;31.50;59.60;;;;;;5060121;28;20872;-70
2022/06/28 11:07:26;;;;;;;3.00;1.40;;;31.50;59.80;;;;;;5061427;28;20547;-70
2022/06/28 11:10:12;;;;;;;2.40;1.20;;;32.70;61.70;;;;;;5063198;28;20571;-70
2022/06/28 11:12:41;;;;;;;1.70;1.20;;;33.40;58.80;;;;;;5060779;28;20881;-70
2022/06/28 11:15:10;;;;;;;2.93;1.97;;;33.10;61.20;;;;;;5058638;28;20449;-69
2022/06/28 11:17:40;;;;;;;1.40;1.10;;;33.40;60.00;;;;;;5064481;28;20823;-70
2022/06/28 11:20:09;;;;;;;2.40;1.43;;;33.30;58.70;;;;;;5062063;28;20566;-69
2022/06/28 11:22:41;;;;;;;2.33;1.40;;;32.80;59.60;;;;;;5063325;28;20442;-70
2022/06/28 11:25:10;;;;;;;1.90;1.20;;;31.40;60.10;;;;;;5064139;28;20512;-69
2022/06/28 11:27:44;;;;;;;3.67;1.60;;;29.80;63.30;;;;;;5062358;28;20439;-69
2022/06/28 11:30:11;;;;;;;2.10;1.30;;;28.60;66.00;;;;;;5061280;28;20524;-70
2022/06/28 11:32:40;;;;;;;1.80;1.10;;;27.60;67.80;;;;;;5061299;28;20483;-70
2022/06/28 11:35:09;;;;;;;2.30;1.20;;;27.40;70.40;;;;;;5057833;28;20523;-70
2022/06/28 11:37:48;;;;;;;3.33;1.30;;;27.00;71.70;;;;;;5062109;28;20489;-70
2022/06/28 11:40:18;;;;;;;2.77;1.37;;;27.00;74.10;;;;;;5059666;28;20569;-70
2022/06/28 11:42:45;;;;;;;4.90;1.43;;;27.40;71.40;;;;;;5064096;28;20446;-70
2022/06/28 11:45:13;;;;;;;3.50;1.20;;;28.20;69.40;;;;;;5062975;28;20463;-71
2022/06/28 11:47:43;;;;;;;3.30;1.57;;;29.90;65.00;;;;;;5064718;28;21013;-70
2022/06/28 11:50:18;;;;;;;4.37;1.63;;;31.00;61.40;;;;;;5061092;28;20456;-70
2022/06/28 11:52:50;;;;;;;3.10;1.10;;;29.90;62.80;;;;;;5063552;28;20474;-70
2022/06/28 11:55:35;;;;;;;2.37;1.30;;;30.50;62.30;;;;;;5051413;28;20837;-71
2022/06/28 11:58:17;;;;;;;2.67;1.43;;;30.60;62.20;;;;;;5062357;28;20542;-70
2022/06/28 12:01:05;;;;;;;1.70;1.23;;;29.40;62.00;;;;;;5055904;28;20719;-70
2022/06/28 12:03:32;;;;;;;1.93;1.73;;;28.20;66.20;;;;;;5062103;28;20530;-70
2022/06/28 12:06:01;;;;;;;4.77;1.70;;;28.30;65.00;;;;;;5058421;28;20486;-70
2022/06/28 12:08:49;;;;;;;1.43;1.13;;;28.10;67.30;;;;;;5064477;28;20459;-70
2022/06/28 12:11:29;;;;;;;1.67;1.30;;;29.10;65.70;;;;;;5061397;28;20770;-70
2022/06/28 12:13:57;;;;;;;2.57;1.20;;;30.20;65.80;;;;;;5063193;28;20983;-71
2022/06/28 12:16:28;;;;;;;3.50;1.30;;;31.70;61.90;;;;;;5061857;28;20459;-70
2022/06/28 12:18:56;;;;;;;2.27;1.43;;;32.90;60.90;;;;;;5064044;28;21628;-71
2022/06/28 12:21:23;;;;;;;1.30;1.10;;;33.60;58.80;;;;;;5064531;28;20499;-71
2022/06/28 12:23:52;;;;;;;4.43;1.40;;;33.60;57.50;;;;;;5059613;28;20460;-71
2022/06/28 12:26:19;;;;;;;1.30;1.10;;;32.50;57.10;;;;;;5053627;28;20459;-70
2022/06/28 12:28:48;;;;;;;4.90;1.20;;;31.70;58.10;;;;;;5061649;28;20475;-70
2022/06/28 12:31:15;;;;;;;2.40;1.00;;;31.30;58.40;;;;;;5057017;28;20538;-70
2022/06/28 12:33:42;;;;;;;2.20;1.47;;;31.90;58.70;;;;;;5063032;28;20494;-70
2022/06/28 12:36:09;;;;;;;3.17;1.13;;;32.60;57.80;;;;;;5056004;28;20456;-70
2022/06/28 12:38:36;;;;;;;3.53;1.30;;;31.80;57.70;;;;;;5058666;28;20487;-70
2022/06/28 12:41:02;;;;;;;4.27;2.10;;;30.90;58.40;;;;;;5058377;28;20445;-71
2022/06/28 12:43:29;;;;;;;2.37;2.17;;;30.40;58.00;;;;;;5062901;28;20475;-71
2022/06/28 12:45:57;;;;;;;2.13;1.10;;;29.60;60.30;;;;;;5062851;28;20465;-70
2022/06/28 12:48:24;;;;;;;3.17;1.33;;;28.70;60.00;;;;;;5062689;28;20465;-70
2022/06/28 12:50:51;;;;;;;2.30;1.10;;;29.70;62.50;;;;;;5059898;28;20479;-70
2022/06/28 12:53:20;;;;;;;4.40;1.20;;;31.30;60.10;;;;;;5063724;28;20491;-70
2022/06/28 12:55:46;;;;;;;2.53;1.13;;;32.30;55.90;;;;;;5060235;28;20471;-71
2022/06/28 12:58:13;;;;;;;1.57;1.30;;;32.40;56.00;;;;;;5056081;28;20983;-70
2022/06/28 13:00:40;;;;;;;6.70;1.67;;;32.40;54.40;;;;;;5055583;28;20570;-71
2022/06/28 13:03:09;;;;;;;2.07;1.23;;;32.20;55.20;;;;;;5053834;28;20476;-71
2022/06/28 13:05:36;;;;;;;3.77;1.40;;;32.80;54.60;;;;;;5060106;28;20644;-70
2022/06/28 13:08:03;;;;;;;1.50;1.07;;;32.20;55.50;;;;;;5063296;28;20462;-71
2022/06/28 13:10:30;;;;;;;1.40;1.10;;;30.80;56.70;;;;;;5058858;28;20454;-70
2022/06/28 13:12:57;;;;;;;2.60;1.33;;;30.30;57.20;;;;;;5060273;28;20500;-71
2022/06/28 13:15:23;;;;;;;1.90;1.17;;;31.30;56.50;;;;;;5059684;28;20518;-70